sensor_id;sensor_type;location;lat;lon;timestamp;temperature;humidity
71668;DHT22;59504;54.806;9.640;2023-05-07T00:01:27;7.10;81.10
71668;DHT22;59504;54.806;9.640;2023-05-07T00:03:48;7.20;80.90
71668;DHT22;59504;54.806;9.640;2023-05-07T00:05:59;7.20;81.10
71668;DHT22;59504;54.806;9.640;2023-05-07T00:08:22;7.30;81.10
71668;DHT22;59504;54.806;9.640;2023-05-07T00:10:43;7.30;80.80
71668;DHT22;59504;54.806;9.640;2023-05-07T00:12:46;7.20;80.80
71668;DHT22;59504;54.806;9.640;2023-05-07T00:14:47;7.30;80.80
71668;DHT22;59504;54.806;9.640;2023-05-07T00:16:47;7.20;80.90
71668;DHT22;59504;54.806;9.640;2023-05-07T00:18:48;7.30;81.00
71668;DHT22;59504;54.806;9.640;2023-05-07T00:20:49;7.30;81.00
71668;DHT22;59504;54.806;9.640;2023-05-07T00:22:52;7.30;81.10
71668;DHT22;59504;54.806;9.640;2023-05-07T00:24:53;7.30;81.00
71668;DHT22;59504;54.806;9.640;2023-05-07T00:27:00;7.20;81.00
71668;DHT22;59504;54.806;9.640;2023-05-07T00:29:04;7.40;80.90
71668;DHT22;59504;54.806;9.640;2023-05-07T00:31:04;7.30;81.00
71668;DHT22;59504;54.806;9.640;2023-05-07T00:33:05;7.30;80.80
71668;DHT22;59504;54.806;9.640;2023-05-07T00:35:06;7.20;80.70
71668;DHT22;59504;54.806;9.640;2023-05-07T00:37:06;7.30;81.20
71668;DHT22;59504;54.806;9.640;2023-05-07T00:39:30;7.30;81.00
71668;DHT22;59504;54.806;9.640;2023-05-07T00:41:33;7.00;81.10
71668;DHT22;59504;54.806;9.640;2023-05-07T00:43:54;7.00;81.40
71668;DHT22;59504;54.806;9.640;2023-05-07T00:46:14;7.10;81.70
71668;DHT22;59504;54.806;9.640;2023-05-07T00:48:39;7.20;81.80
71668;DHT22;59504;54.806;9.640;2023-05-07T00:51:02;7.20;82.10
71668;DHT22;59504;54.806;9.640;2023-05-07T00:53:23;7.10;81.90
71668;DHT22;59504;54.806;9.640;2023-05-07T00:55:52;7.20;82.00
71668;DHT22;59504;54.806;9.640;2023-05-07T00:57:53;7.20;82.10
71668;DHT22;59504;54.806;9.640;2023-05-07T01:00:04;7.20;82.20
71668;DHT22;59504;54.806;9.640;2023-05-07T01:02:19;7.20;81.90
71668;DHT22;59504;54.806;9.640;2023-05-07T01:04:22;7.00;82.20
71668;DHT22;59504;54.806;9.640;2023-05-07T01:06:25;7.20;82.40
71668;DHT22;59504;54.806;9.640;2023-05-07T01:08:34;7.30;82.40
71668;DHT22;59504;54.806;9.640;2023-05-07T01:10:38;7.40;82.20
71668;DHT22;59504;54.806;9.640;2023-05-07T01:12:46;7.40;82.20
71668;DHT22;59504;54.806;9.640;2023-05-07T01:14:51;7.40;82.30
71668;DHT22;59504;54.806;9.640;2023-05-07T01:16:55;7.30;82.10
71668;DHT22;59504;54.806;9.640;2023-05-07T01:18:56;7.40;82.00
71668;DHT22;59504;54.806;9.640;2023-05-07T01:20:57;7.40;82.10
71668;DHT22;59504;54.806;9.640;2023-05-07T01:22:58;7.40;82.00
71668;DHT22;59504;54.806;9.640;2023-05-07T01:25:00;7.40;82.30
71668;DHT22;59504;54.806;9.640;2023-05-07T01:27:24;7.50;82.20
71668;DHT22;59504;54.806;9.640;2023-05-07T01:29:31;7.50;82.10
71668;DHT22;59504;54.806;9.640;2023-05-07T01:31:52;7.60;82.00
71668;DHT22;59504;54.806;9.640;2023-05-07T01:34:15;7.50;82.20
71668;DHT22;59504;54.806;9.640;2023-05-07T01:36:38;7.50;82.10
71668;DHT22;59504;54.806;9.640;2023-05-07T01:39:02;7.50;82.30
71668;DHT22;59504;54.806;9.640;2023-05-07T01:41:19;7.60;82.00
71668;DHT22;59504;54.806;9.640;2023-05-07T01:43:40;7.70;82.00
71668;DHT22;59504;54.806;9.640;2023-05-07T01:46:01;7.70;82.10
71668;DHT22;59504;54.806;9.640;2023-05-07T01:48:23;7.70;82.00
71668;DHT22;59504;54.806;9.640;2023-05-07T01:50:44;7.70;81.90
71668;DHT22;59504;54.806;9.640;2023-05-07T01:53:05;7.70;82.00
71668;DHT22;59504;54.806;9.640;2023-05-07T01:55:25;7.60;82.00
71668;DHT22;59504;54.806;9.640;2023-05-07T01:57:46;7.60;82.20
71668;DHT22;59504;54.806;9.640;2023-05-07T02:00:07;7.60;82.30
71668;DHT22;59504;54.806;9.640;2023-05-07T02:02:29;7.60;82.20
71668;DHT22;59504;54.806;9.640;2023-05-07T02:04:49;7.70;82.10
71668;DHT22;59504;54.806;9.640;2023-05-07T02:06:50;7.70;82.10
71668;DHT22;59504;54.806;9.640;2023-05-07T02:09:05;7.80;82.20
71668;DHT22;59504;54.806;9.640;2023-05-07T02:11:05;7.70;82.10
71668;DHT22;59504;54.806;9.640;2023-05-07T02:13:06;7.70;81.70
71668;DHT22;59504;54.806;9.640;2023-05-07T02:15:10;7.80;81.90
71668;DHT22;59504;54.806;9.640;2023-05-07T02:17:17;7.70;81.70
71668;DHT22;59504;54.806;9.640;2023-05-07T02:19:23;7.90;81.90
71668;DHT22;59504;54.806;9.640;2023-05-07T02:21:27;7.80;81.70
71668;DHT22;59504;54.806;9.640;2023-05-07T02:23:33;7.90;81.70
71668;DHT22;59504;54.806;9.640;2023-05-07T02:25:40;7.90;81.60
71668;DHT22;59504;54.806;9.640;2023-05-07T02:28:00;7.90;81.60
71668;DHT22;59504;54.806;9.640;2023-05-07T02:30:21;7.90;81.50
71668;DHT22;59504;54.806;9.640;2023-05-07T02:32:22;8.00;82.30
71668;DHT22;59504;54.806;9.640;2023-05-07T02:34:43;7.90;81.50
71668;DHT22;59504;54.806;9.640;2023-05-07T02:37:01;7.90;81.80
71668;DHT22;59504;54.806;9.640;2023-05-07T02:39:22;8.00;81.60
71668;DHT22;59504;54.806;9.640;2023-05-07T02:41:53;7.90;81.40
71668;DHT22;59504;54.806;9.640;2023-05-07T02:44:13;7.90;81.60
71668;DHT22;59504;54.806;9.640;2023-05-07T02:46:34;8.00;81.60
71668;DHT22;59504;54.806;9.640;2023-05-07T02:48:55;8.00;81.60
71668;DHT22;59504;54.806;9.640;2023-05-07T02:53:50;8.10;81.70
71668;DHT22;59504;54.806;9.640;2023-05-07T02:56:14;7.90;81.30
71668;DHT22;59504;54.806;9.640;2023-05-07T02:58:35;8.00;81.40
71668;DHT22;59504;54.806;9.640;2023-05-07T03:00:36;7.90;81.20
71668;DHT22;59504;54.806;9.640;2023-05-07T03:03:03;8.00;81.40
71668;DHT22;59504;54.806;9.640;2023-05-07T03:05:23;7.90;81.20
71668;DHT22;59504;54.806;9.640;2023-05-07T03:07:47;8.00;81.10
71668;DHT22;59504;54.806;9.640;2023-05-07T03:10:42;8.10;80.90
71668;DHT22;59504;54.806;9.640;2023-05-07T03:13:02;8.00;80.80
71668;DHT22;59504;54.806;9.640;2023-05-07T03:15:23;8.10;80.70
71668;DHT22;59504;54.806;9.640;2023-05-07T03:17:46;8.10;80.70
71668;DHT22;59504;54.806;9.640;2023-05-07T03:20:20;7.90;80.70
71668;DHT22;59504;54.806;9.640;2023-05-07T03:23:01;8.00;80.80
71668;DHT22;59504;54.806;9.640;2023-05-07T03:25:25;7.80;80.50
71668;DHT22;59504;54.806;9.640;2023-05-07T03:27:46;8.00;80.50
71668;DHT22;59504;54.806;9.640;2023-05-07T03:29:47;8.00;80.50
71668;DHT22;59504;54.806;9.640;2023-05-07T03:31:50;8.10;80.60
71668;DHT22;59504;54.806;9.640;2023-05-07T03:33:52;8.10;80.40
71668;DHT22;59504;54.806;9.640;2023-05-07T03:35:53;8.00;80.30
71668;DHT22;59504;54.806;9.640;2023-05-07T03:37:56;8.00;80.60
71668;DHT22;59504;54.806;9.640;2023-05-07T03:39:57;8.00;80.50
71668;DHT22;59504;54.806;9.640;2023-05-07T03:42:00;8.00;80.30
71668;DHT22;59504;54.806;9.640;2023-05-07T03:44:01;8.00;80.30
71668;DHT22;59504;54.806;9.640;2023-05-07T03:46:02;8.00;80.10
71668;DHT22;59504;54.806;9.640;2023-05-07T03:48:03;8.00;80.10
71668;DHT22;59504;54.806;9.640;2023-05-07T03:50:14;8.00;80.10
71668;DHT22;59504;54.806;9.640;2023-05-07T03:52:15;7.90;80.10
71668;DHT22;59504;54.806;9.640;2023-05-07T03:54:38;8.10;80.20
71668;DHT22;59504;54.806;9.640;2023-05-07T03:56:50;8.00;80.00
71668;DHT22;59504;54.806;9.640;2023-05-07T03:59:11;8.10;80.00
71668;DHT22;59504;54.806;9.640;2023-05-07T04:01:31;8.10;80.00
71668;DHT22;59504;54.806;9.640;2023-05-07T04:03:52;8.00;79.90
71668;DHT22;59504;54.806;9.640;2023-05-07T04:06:19;8.10;79.80
71668;DHT22;59504;54.806;9.640;2023-05-07T04:08:42;8.10;79.80
71668;DHT22;59504;54.806;9.640;2023-05-07T04:11:03;8.10;79.70
71668;DHT22;59504;54.806;9.640;2023-05-07T04:13:26;8.20;79.60
71668;DHT22;59504;54.806;9.640;2023-05-07T04:16:01;8.10;79.60
71668;DHT22;59504;54.806;9.640;2023-05-07T04:18:14;8.20;79.60
71668;DHT22;59504;54.806;9.640;2023-05-07T04:20:16;8.20;79.50
71668;DHT22;59504;54.806;9.640;2023-05-07T04:22:20;8.00;79.70
71668;DHT22;59504;54.806;9.640;2023-05-07T04:24:23;8.10;79.60
71668;DHT22;59504;54.806;9.640;2023-05-07T04:26:44;8.10;79.80
71668;DHT22;59504;54.806;9.640;2023-05-07T04:28:56;8.10;79.50
71668;DHT22;59504;54.806;9.640;2023-05-07T04:31:19;8.20;79.30
71668;DHT22;59504;54.806;9.640;2023-05-07T04:34:01;8.10;79.30
71668;DHT22;59504;54.806;9.640;2023-05-07T04:36:24;8.10;79.20
71668;DHT22;59504;54.806;9.640;2023-05-07T04:38:50;8.10;79.00
71668;DHT22;59504;54.806;9.640;2023-05-07T04:41:22;8.20;79.20
71668;DHT22;59504;54.806;9.640;2023-05-07T04:43:48;8.30;79.10
71668;DHT22;59504;54.806;9.640;2023-05-07T04:46:15;8.20;79.10
71668;DHT22;59504;54.806;9.640;2023-05-07T04:48:45;8.20;79.10
71668;DHT22;59504;54.806;9.640;2023-05-07T04:51:15;8.20;78.90
71668;DHT22;59504;54.806;9.640;2023-05-07T04:53:37;8.30;78.90
71668;DHT22;59504;54.806;9.640;2023-05-07T04:55:57;8.30;78.90
71668;DHT22;59504;54.806;9.640;2023-05-07T04:58:18;8.30;79.00
71668;DHT22;59504;54.806;9.640;2023-05-07T05:00:38;8.40;79.00
71668;DHT22;59504;54.806;9.640;2023-05-07T05:03:02;8.30;78.90
71668;DHT22;59504;54.806;9.640;2023-05-07T05:05:23;8.30;78.90
71668;DHT22;59504;54.806;9.640;2023-05-07T05:07:44;8.40;79.00
71668;DHT22;59504;54.806;9.640;2023-05-07T05:10:12;8.40;78.90
71668;DHT22;59504;54.806;9.640;2023-05-07T05:12:36;8.30;78.80
71668;DHT22;59504;54.806;9.640;2023-05-07T05:15:00;8.40;78.80
71668;DHT22;59504;54.806;9.640;2023-05-07T05:17:21;8.40;78.80
71668;DHT22;59504;54.806;9.640;2023-05-07T05:19:41;8.50;78.90
71668;DHT22;59504;54.806;9.640;2023-05-07T05:22:05;8.50;78.80
71668;DHT22;59504;54.806;9.640;2023-05-07T05:24:31;8.40;78.60
71668;DHT22;59504;54.806;9.640;2023-05-07T05:26:55;8.60;78.70
71668;DHT22;59504;54.806;9.640;2023-05-07T05:29:16;8.50;78.60
71668;DHT22;59504;54.806;9.640;2023-05-07T05:31:39;8.70;78.50
71668;DHT22;59504;54.806;9.640;2023-05-07T05:34:02;8.50;78.10
71668;DHT22;59504;54.806;9.640;2023-05-07T05:36:28;8.70;78.20
71668;DHT22;59504;54.806;9.640;2023-05-07T05:38:32;8.60;77.80
71668;DHT22;59504;54.806;9.640;2023-05-07T05:40:33;8.70;77.90
71668;DHT22;59504;54.806;9.640;2023-05-07T05:42:52;8.70;77.80
71668;DHT22;59504;54.806;9.640;2023-05-07T05:44:58;8.70;77.60
71668;DHT22;59504;54.806;9.640;2023-05-07T05:47:04;8.70;77.50
71668;DHT22;59504;54.806;9.640;2023-05-07T05:49:15;8.80;77.60
71668;DHT22;59504;54.806;9.640;2023-05-07T05:51:20;8.80;77.50
71668;DHT22;59504;54.806;9.640;2023-05-07T05:53:26;8.80;77.50
71668;DHT22;59504;54.806;9.640;2023-05-07T05:55:27;8.90;77.50
71668;DHT22;59504;54.806;9.640;2023-05-07T05:57:28;8.90;77.50
71668;DHT22;59504;54.806;9.640;2023-05-07T05:59:28;8.90;77.50
71668;DHT22;59504;54.806;9.640;2023-05-07T06:01:32;8.90;77.40
71668;DHT22;59504;54.806;9.640;2023-05-07T06:04:01;8.90;77.30
71668;DHT22;59504;54.806;9.640;2023-05-07T06:06:30;8.90;77.20
71668;DHT22;59504;54.806;9.640;2023-05-07T06:08:37;8.90;77.20
71668;DHT22;59504;54.806;9.640;2023-05-07T06:10:41;8.80;76.70
71668;DHT22;59504;54.806;9.640;2023-05-07T06:13:01;8.80;76.20
71668;DHT22;59504;54.806;9.640;2023-05-07T06:15:08;9.00;76.70
71668;DHT22;59504;54.806;9.640;2023-05-07T06:19:35;8.90;76.60
71668;DHT22;59504;54.806;9.640;2023-05-07T06:21:39;8.90;76.50
71668;DHT22;59504;54.806;9.640;2023-05-07T06:23:47;8.90;76.20
71668;DHT22;59504;54.806;9.640;2023-05-07T06:26:12;8.90;76.40
71668;DHT22;59504;54.806;9.640;2023-05-07T06:28:24;8.90;76.30
71668;DHT22;59504;54.806;9.640;2023-05-07T06:30:25;9.00;76.20
71668;DHT22;59504;54.806;9.640;2023-05-07T06:32:52;9.00;76.20
71668;DHT22;59504;54.806;9.640;2023-05-07T06:35:11;8.90;76.20
71668;DHT22;59504;54.806;9.640;2023-05-07T06:37:14;9.00;76.10
71668;DHT22;59504;54.806;9.640;2023-05-07T06:39:17;8.80;75.50
71668;DHT22;59504;54.806;9.640;2023-05-07T06:41:19;9.00;75.90
71668;DHT22;59504;54.806;9.640;2023-05-07T06:43:43;9.00;75.80
71668;DHT22;59504;54.806;9.640;2023-05-07T06:46:06;9.00;75.20
71668;DHT22;59504;54.806;9.640;2023-05-07T06:48:27;8.80;75.10
71668;DHT22;59504;54.806;9.640;2023-05-07T06:50:48;8.90;75.10
71668;DHT22;59504;54.806;9.640;2023-05-07T06:53:14;9.00;75.40
71668;DHT22;59504;54.806;9.640;2023-05-07T06:55:34;9.00;75.50
71668;DHT22;59504;54.806;9.640;2023-05-07T06:58:04;9.00;75.40
71668;DHT22;59504;54.806;9.640;2023-05-07T07:00:38;9.00;75.10
71668;DHT22;59504;54.806;9.640;2023-05-07T07:03:10;9.00;74.90
71668;DHT22;59504;54.806;9.640;2023-05-07T07:08:11;9.00;74.70
71668;DHT22;59504;54.806;9.640;2023-05-07T07:10:55;8.90;74.60
71668;DHT22;59504;54.806;9.640;2023-05-07T07:13:15;8.90;74.80
71668;DHT22;59504;54.806;9.640;2023-05-07T07:15:48;8.90;75.20
71668;DHT22;59504;54.806;9.640;2023-05-07T07:18:08;8.80;75.70
71668;DHT22;59504;54.806;9.640;2023-05-07T07:20:14;8.90;75.80
71668;DHT22;59504;54.806;9.640;2023-05-07T07:22:33;9.00;75.90
71668;DHT22;59504;54.806;9.640;2023-05-07T07:24:46;9.00;76.10
71668;DHT22;59504;54.806;9.640;2023-05-07T07:26:58;9.10;76.40
71668;DHT22;59504;54.806;9.640;2023-05-07T07:29:02;9.30;76.50
71668;DHT22;59504;54.806;9.640;2023-05-07T07:31:11;9.20;76.30
71668;DHT22;59504;54.806;9.640;2023-05-07T07:33:11;9.40;76.30
71668;DHT22;59504;54.806;9.640;2023-05-07T07:35:14;9.30;74.60
71668;DHT22;59504;54.806;9.640;2023-05-07T07:37:22;9.30;74.80
71668;DHT22;59504;54.806;9.640;2023-05-07T07:39:34;9.40;74.40
71668;DHT22;59504;54.806;9.640;2023-05-07T07:41:39;9.40;73.70
71668;DHT22;59504;54.806;9.640;2023-05-07T07:43:43;9.40;73.70
71668;DHT22;59504;54.806;9.640;2023-05-07T07:45:51;9.30;73.60
71668;DHT22;59504;54.806;9.640;2023-05-07T07:48:14;9.20;73.50
71668;DHT22;59504;54.806;9.640;2023-05-07T07:50:37;9.30;74.30
71668;DHT22;59504;54.806;9.640;2023-05-07T07:52:58;9.20;74.20
71668;DHT22;59504;54.806;9.640;2023-05-07T07:55:00;9.20;74.50
71668;DHT22;59504;54.806;9.640;2023-05-07T07:57:21;9.30;74.60
71668;DHT22;59504;54.806;9.640;2023-05-07T07:59:42;9.40;74.70
71668;DHT22;59504;54.806;9.640;2023-05-07T08:02:03;9.40;74.30
71668;DHT22;59504;54.806;9.640;2023-05-07T08:04:27;9.50;74.40
71668;DHT22;59504;54.806;9.640;2023-05-07T08:06:50;9.40;74.20
71668;DHT22;59504;54.806;9.640;2023-05-07T08:09:11;9.40;73.70
71668;DHT22;59504;54.806;9.640;2023-05-07T08:11:32;9.50;74.00
71668;DHT22;59504;54.806;9.640;2023-05-07T08:13:55;9.50;74.20
71668;DHT22;59504;54.806;9.640;2023-05-07T08:16:21;9.50;73.00
71668;DHT22;59504;54.806;9.640;2023-05-07T08:18:54;9.50;73.20
71668;DHT22;59504;54.806;9.640;2023-05-07T08:23:16;9.70;73.60
71668;DHT22;59504;54.806;9.640;2023-05-07T08:25:23;9.60;73.40
71668;DHT22;59504;54.806;9.640;2023-05-07T08:27:32;9.70;73.50
71668;DHT22;59504;54.806;9.640;2023-05-07T08:29:41;9.80;73.60
71668;DHT22;59504;54.806;9.640;2023-05-07T08:31:42;9.90;73.40
71668;DHT22;59504;54.806;9.640;2023-05-07T08:33:51;9.80;73.30
71668;DHT22;59504;54.806;9.640;2023-05-07T08:35:52;9.90;73.60
71668;DHT22;59504;54.806;9.640;2023-05-07T08:37:55;10.10;73.60
71668;DHT22;59504;54.806;9.640;2023-05-07T08:40:07;10.10;73.50
71668;DHT22;59504;54.806;9.640;2023-05-07T08:42:08;10.10;73.50
71668;DHT22;59504;54.806;9.640;2023-05-07T08:44:11;10.20;72.60
71668;DHT22;59504;54.806;9.640;2023-05-07T08:46:21;10.30;72.00
71668;DHT22;59504;54.806;9.640;2023-05-07T08:48:49;10.20;71.00
71668;DHT22;59504;54.806;9.640;2023-05-07T08:50:52;10.40;71.80
71668;DHT22;59504;54.806;9.640;2023-05-07T08:52:53;10.40;72.00
71668;DHT22;59504;54.806;9.640;2023-05-07T08:55:06;10.40;70.90
71668;DHT22;59504;54.806;9.640;2023-05-07T08:57:26;10.50;70.90
71668;DHT22;59504;54.806;9.640;2023-05-07T08:59:30;10.40;70.30
71668;DHT22;59504;54.806;9.640;2023-05-07T09:01:30;10.50;70.70
71668;DHT22;59504;54.806;9.640;2023-05-07T09:03:31;10.50;70.10
71668;DHT22;59504;54.806;9.640;2023-05-07T09:05:40;10.60;70.60
71668;DHT22;59504;54.806;9.640;2023-05-07T09:07:50;10.50;70.00
71668;DHT22;59504;54.806;9.640;2023-05-07T09:10:01;10.60;69.90
71668;DHT22;59504;54.806;9.640;2023-05-07T09:12:07;10.40;69.80
71668;DHT22;59504;54.806;9.640;2023-05-07T09:14:16;10.50;70.80
71668;DHT22;59504;54.806;9.640;2023-05-07T09:16:27;10.60;70.90
71668;DHT22;59504;54.806;9.640;2023-05-07T09:18:28;10.70;71.10
71668;DHT22;59504;54.806;9.640;2023-05-07T09:20:36;10.70;71.00
71668;DHT22;59504;54.806;9.640;2023-05-07T09:22:45;10.60;70.20
71668;DHT22;59504;54.806;9.640;2023-05-07T09:24:50;10.40;69.90
71668;DHT22;59504;54.806;9.640;2023-05-07T09:26:55;10.30;70.10
71668;DHT22;59504;54.806;9.640;2023-05-07T09:29:05;10.50;70.50
71668;DHT22;59504;54.806;9.640;2023-05-07T09:31:06;10.60;70.90
71668;DHT22;59504;54.806;9.640;2023-05-07T09:33:09;10.70;71.40
71668;DHT22;59504;54.806;9.640;2023-05-07T09:35:29;10.70;71.70
71668;DHT22;59504;54.806;9.640;2023-05-07T09:37:35;10.90;72.10
71668;DHT22;59504;54.806;9.640;2023-05-07T09:39:48;10.90;71.10
71668;DHT22;59504;54.806;9.640;2023-05-07T09:41:54;11.00;71.60
71668;DHT22;59504;54.806;9.640;2023-05-07T09:44:00;11.10;71.50
71668;DHT22;59504;54.806;9.640;2023-05-07T09:46:08;11.20;70.00
71668;DHT22;59504;54.806;9.640;2023-05-07T09:48:08;11.10;69.40
71668;DHT22;59504;54.806;9.640;2023-05-07T09:50:32;11.10;69.90
71668;DHT22;59504;54.806;9.640;2023-05-07T09:52:34;11.30;70.70
71668;DHT22;59504;54.806;9.640;2023-05-07T09:54:35;11.20;71.00
71668;DHT22;59504;54.806;9.640;2023-05-07T09:56:43;11.30;69.10
71668;DHT22;59504;54.806;9.640;2023-05-07T09:58:47;11.40;68.90
71668;DHT22;59504;54.806;9.640;2023-05-07T10:01:06;11.50;68.40
71668;DHT22;59504;54.806;9.640;2023-05-07T10:03:22;11.50;68.20
71668;DHT22;59504;54.806;9.640;2023-05-07T10:05:25;11.50;68.30
71668;DHT22;59504;54.806;9.640;2023-05-07T10:07:29;11.50;67.50
71668;DHT22;59504;54.806;9.640;2023-05-07T10:09:32;11.60;68.00
71668;DHT22;59504;54.806;9.640;2023-05-07T10:11:36;11.80;68.60
71668;DHT22;59504;54.806;9.640;2023-05-07T10:13:42;11.80;68.20
71668;DHT22;59504;54.806;9.640;2023-05-07T10:15:45;11.80;67.50
71668;DHT22;59504;54.806;9.640;2023-05-07T10:17:50;11.90;67.40
71668;DHT22;59504;54.806;9.640;2023-05-07T10:19:56;11.90;67.60
71668;DHT22;59504;54.806;9.640;2023-05-07T10:22:03;12.00;67.10
71668;DHT22;59504;54.806;9.640;2023-05-07T10:24:19;12.00;67.10
71668;DHT22;59504;54.806;9.640;2023-05-07T10:26:36;12.20;67.40
71668;DHT22;59504;54.806;9.640;2023-05-07T10:28:41;12.20;68.20
71668;DHT22;59504;54.806;9.640;2023-05-07T10:33:00;12.20;67.30
71668;DHT22;59504;54.806;9.640;2023-05-07T10:35:19;12.30;67.20
71668;DHT22;59504;54.806;9.640;2023-05-07T10:37:20;12.30;66.80
71668;DHT22;59504;54.806;9.640;2023-05-07T10:39:27;12.30;66.80
71668;DHT22;59504;54.806;9.640;2023-05-07T10:41:35;12.30;66.60
71668;DHT22;59504;54.806;9.640;2023-05-07T10:43:39;12.40;66.40
71668;DHT22;59504;54.806;9.640;2023-05-07T10:45:43;12.30;66.20
71668;DHT22;59504;54.806;9.640;2023-05-07T10:52:19;12.30;64.40
71668;DHT22;59504;54.806;9.640;2023-05-07T10:54:26;12.40;65.40
71668;DHT22;59504;54.806;9.640;2023-05-07T10:56:32;12.40;66.10
71668;DHT22;59504;54.806;9.640;2023-05-07T10:58:41;12.50;66.70
71668;DHT22;59504;54.806;9.640;2023-05-07T11:00:46;12.60;67.10
71668;DHT22;59504;54.806;9.640;2023-05-07T11:05:23;12.70;66.30
71668;DHT22;59504;54.806;9.640;2023-05-07T11:07:30;12.80;67.00
71668;DHT22;59504;54.806;9.640;2023-05-07T11:12:02;12.90;65.60
71668;DHT22;59504;54.806;9.640;2023-05-07T11:14:09;12.90;65.90
71668;DHT22;59504;54.806;9.640;2023-05-07T11:16:24;12.80;64.00
71668;DHT22;59504;54.806;9.640;2023-05-07T11:18:47;12.80;64.10
71668;DHT22;59504;54.806;9.640;2023-05-07T11:23:00;12.80;65.30
71668;DHT22;59504;54.806;9.640;2023-05-07T11:27:27;12.90;66.50
71668;DHT22;59504;54.806;9.640;2023-05-07T11:29:34;12.90;65.70
71668;DHT22;59504;54.806;9.640;2023-05-07T11:31:37;13.00;66.10
71668;DHT22;59504;54.806;9.640;2023-05-07T11:33:38;13.10;66.30
71668;DHT22;59504;54.806;9.640;2023-05-07T11:35:42;13.10;66.20
71668;DHT22;59504;54.806;9.640;2023-05-07T11:37:46;13.20;66.70
71668;DHT22;59504;54.806;9.640;2023-05-07T11:40:09;13.30;67.00
71668;DHT22;59504;54.806;9.640;2023-05-07T11:42:33;13.30;67.20
71668;DHT22;59504;54.806;9.640;2023-05-07T11:44:51;13.40;66.80
71668;DHT22;59504;54.806;9.640;2023-05-07T11:46:51;13.50;66.80
71668;DHT22;59504;54.806;9.640;2023-05-07T11:51:54;13.60;66.30
71668;DHT22;59504;54.806;9.640;2023-05-07T12:01:28;13.90;64.60
71668;DHT22;59504;54.806;9.640;2023-05-07T12:03:32;14.10;64.80
71668;DHT22;59504;54.806;9.640;2023-05-07T12:05:55;14.00;64.40
71668;DHT22;59504;54.806;9.640;2023-05-07T12:08:05;14.20;63.90
71668;DHT22;59504;54.806;9.640;2023-05-07T12:10:48;14.10;62.50
71668;DHT22;59504;54.806;9.640;2023-05-07T12:12:58;14.00;61.20
71668;DHT22;59504;54.806;9.640;2023-05-07T12:15:02;14.10;61.70
71668;DHT22;59504;54.806;9.640;2023-05-07T12:17:05;14.10;62.00
71668;DHT22;59504;54.806;9.640;2023-05-07T12:19:10;14.10;60.20
71668;DHT22;59504;54.806;9.640;2023-05-07T12:21:12;14.10;61.40
71668;DHT22;59504;54.806;9.640;2023-05-07T12:23:16;14.10;61.20
71668;DHT22;59504;54.806;9.640;2023-05-07T12:25:18;14.10;60.50
71668;DHT22;59504;54.806;9.640;2023-05-07T12:27:19;14.00;60.30
71668;DHT22;59504;54.806;9.640;2023-05-07T12:29:23;13.90;59.60
71668;DHT22;59504;54.806;9.640;2023-05-07T12:31:36;14.00;60.50
71668;DHT22;59504;54.806;9.640;2023-05-07T12:34:13;14.00;59.80
71668;DHT22;59504;54.806;9.640;2023-05-07T12:36:49;13.80;60.50
71668;DHT22;59504;54.806;9.640;2023-05-07T12:38:56;13.80;60.50
71668;DHT22;59504;54.806;9.640;2023-05-07T12:40:57;13.80;59.70
71668;DHT22;59504;54.806;9.640;2023-05-07T12:42:58;13.70;59.90
71668;DHT22;59504;54.806;9.640;2023-05-07T12:45:07;13.80;59.70
71668;DHT22;59504;54.806;9.640;2023-05-07T12:47:10;13.70;59.00
71668;DHT22;59504;54.806;9.640;2023-05-07T12:49:15;13.50;59.40
71668;DHT22;59504;54.806;9.640;2023-05-07T12:51:21;13.50;60.20
71668;DHT22;59504;54.806;9.640;2023-05-07T12:53:39;13.40;60.70
71668;DHT22;59504;54.806;9.640;2023-05-07T12:56:03;13.40;59.90
71668;DHT22;59504;54.806;9.640;2023-05-07T12:58:22;13.40;60.30
71668;DHT22;59504;54.806;9.640;2023-05-07T13:00:38;13.40;59.30
71668;DHT22;59504;54.806;9.640;2023-05-07T13:05:56;13.60;60.50
71668;DHT22;59504;54.806;9.640;2023-05-07T13:08:00;13.50;59.30
71668;DHT22;59504;54.806;9.640;2023-05-07T13:10:15;13.60;60.30
71668;DHT22;59504;54.806;9.640;2023-05-07T13:12:24;13.60;59.40
71668;DHT22;59504;54.806;9.640;2023-05-07T13:14:25;13.50;58.60
71668;DHT22;59504;54.806;9.640;2023-05-07T13:18:55;13.70;59.40
71668;DHT22;59504;54.806;9.640;2023-05-07T13:21:01;13.70;58.90
71668;DHT22;59504;54.806;9.640;2023-05-07T13:23:05;13.70;58.50
71668;DHT22;59504;54.806;9.640;2023-05-07T13:25:25;13.80;58.90
71668;DHT22;59504;54.806;9.640;2023-05-07T13:27:32;13.60;57.30
71668;DHT22;59504;54.806;9.640;2023-05-07T13:29:42;13.60;58.20
71668;DHT22;59504;54.806;9.640;2023-05-07T13:32:05;13.60;57.70
71668;DHT22;59504;54.806;9.640;2023-05-07T13:34:14;13.60;57.90
71668;DHT22;59504;54.806;9.640;2023-05-07T13:36:14;13.50;56.30
71668;DHT22;59504;54.806;9.640;2023-05-07T13:38:18;13.50;57.20
71668;DHT22;59504;54.806;9.640;2023-05-07T13:40:19;13.50;57.70
71668;DHT22;59504;54.806;9.640;2023-05-07T13:42:19;13.60;58.20
71668;DHT22;59504;54.806;9.640;2023-05-07T13:44:20;13.60;58.20
71668;DHT22;59504;54.806;9.640;2023-05-07T13:46:21;13.60;57.90
71668;DHT22;59504;54.806;9.640;2023-05-07T13:48:22;13.70;58.20
71668;DHT22;59504;54.806;9.640;2023-05-07T13:50:31;13.60;57.60
71668;DHT22;59504;54.806;9.640;2023-05-07T13:52:32;13.70;57.40
71668;DHT22;59504;54.806;9.640;2023-05-07T13:54:32;13.60;56.80
71668;DHT22;59504;54.806;9.640;2023-05-07T13:56:33;13.70;57.30
71668;DHT22;59504;54.806;9.640;2023-05-07T13:58:36;13.30;55.60
71668;DHT22;59504;54.806;9.640;2023-05-07T14:00:40;13.40;56.90
71668;DHT22;59504;54.806;9.640;2023-05-07T14:02:43;13.50;57.10
71668;DHT22;59504;54.806;9.640;2023-05-07T14:04:47;13.30;56.00
71668;DHT22;59504;54.806;9.640;2023-05-07T14:07:16;13.30;55.60
71668;DHT22;59504;54.806;9.640;2023-05-07T14:09:25;13.40;55.90
71668;DHT22;59504;54.806;9.640;2023-05-07T14:11:37;13.40;56.30
71668;DHT22;59504;54.806;9.640;2023-05-07T14:13:51;13.40;56.90
71668;DHT22;59504;54.806;9.640;2023-05-07T14:16:21;13.40;56.40
71668;DHT22;59504;54.806;9.640;2023-05-07T14:18:30;13.60;56.50
71668;DHT22;59504;54.806;9.640;2023-05-07T14:20:47;13.60;56.50
71668;DHT22;59504;54.806;9.640;2023-05-07T14:23:04;13.60;56.30
71668;DHT22;59504;54.806;9.640;2023-05-07T14:25:13;13.60;56.30
71668;DHT22;59504;54.806;9.640;2023-05-07T14:27:23;13.60;56.00
71668;DHT22;59504;54.806;9.640;2023-05-07T14:29:24;13.60;55.90
71668;DHT22;59504;54.806;9.640;2023-05-07T14:31:25;13.70;55.40
71668;DHT22;59504;54.806;9.640;2023-05-07T14:33:27;13.60;55.10
71668;DHT22;59504;54.806;9.640;2023-05-07T14:35:44;13.70;55.30
71668;DHT22;59504;54.806;9.640;2023-05-07T14:38:20;13.60;55.00
71668;DHT22;59504;54.806;9.640;2023-05-07T14:40:33;13.60;54.80
71668;DHT22;59504;54.806;9.640;2023-05-07T14:42:48;13.50;54.60
71668;DHT22;59504;54.806;9.640;2023-05-07T14:45:27;13.50;54.30
71668;DHT22;59504;54.806;9.640;2023-05-07T14:47:21;13.50;54.90